createdAt,value
2018-04-10T00:00:38.869Z,5.87
2018-04-10T00:03:07.091Z,6.87
2018-04-10T00:05:34.568Z,6.63
2018-04-10T00:08:02.043Z,9.77
2018-04-10T00:10:29.508Z,3.63
2018-04-10T00:12:56.977Z,5.33
2018-04-10T00:15:25.197Z,6.27
2018-04-10T00:17:52.705Z,6.70
2018-04-10T00:20:20.977Z,6.43
2018-04-10T00:22:48.405Z,4.63
2018-04-10T00:25:15.872Z,5.73
2018-04-10T00:27:43.320Z,6.73
2018-04-10T00:30:10.784Z,6.10
2018-04-10T00:32:38.255Z,4.30
2018-04-10T00:35:05.733Z,5.10
2018-04-10T00:37:33.955Z,7.53
2018-04-10T00:40:01.425Z,7.00
2018-04-10T00:42:28.889Z,9.50
2018-04-10T00:44:56.341Z,6.60
2018-04-10T00:47:23.820Z,7.43
2018-04-10T00:49:51.276Z,5.53
2018-04-10T00:52:18.761Z,7.40
2018-04-10T00:54:46.245Z,6.17
2018-04-10T00:57:13.711Z,6.73
2018-04-10T00:59:41.170Z,7.17
2018-04-10T01:02:08.629Z,5.13
2018-04-10T01:04:36.080Z,3.87
2018-04-10T01:07:03.540Z,4.47
2018-04-10T01:09:30.988Z,7.00
2018-04-10T01:11:58.441Z,6.67
2018-04-10T01:14:25.895Z,6.10
2018-04-10T01:16:53.349Z,8.53
2018-04-10T01:19:20.804Z,5.77
2018-04-10T01:21:48.258Z,9.00
2018-04-10T01:24:15.704Z,7.40
2018-04-10T01:26:43.925Z,5.03
2018-04-10T01:29:11.388Z,8.43
2018-04-10T01:31:39.060Z,8.00
2018-04-10T01:34:06.503Z,7.07
2018-04-10T01:36:33.968Z,8.67
2018-04-10T01:39:01.424Z,7.00
2018-04-10T01:41:28.927Z,6.53
2018-04-10T01:43:56.375Z,5.77
2018-04-10T01:46:24.611Z,7.03
2018-04-10T01:48:52.074Z,6.17
2018-04-10T01:51:19.570Z,6.13
2018-04-10T01:53:47.841Z,4.33
2018-04-10T01:56:16.092Z,7.37
2018-04-10T01:58:43.581Z,7.53
2018-04-10T02:01:11.839Z,4.93
2018-04-10T02:03:39.333Z,5.90
2018-04-10T02:06:06.801Z,7.03
2018-04-10T02:08:34.326Z,5.67
2018-04-10T02:11:01.833Z,5.43
2018-04-10T02:13:29.306Z,6.93
2018-04-10T02:15:56.780Z,6.23
2018-04-10T02:18:25.029Z,6.03
2018-04-10T02:20:52.527Z,5.73
2018-04-10T02:23:20.796Z,5.37
2018-04-10T02:25:48.286Z,5.53
2018-04-10T02:28:15.753Z,6.07
2018-04-10T02:30:43.278Z,5.63
2018-04-10T02:33:11.533Z,7.30
2018-04-10T02:35:39.588Z,5.30
2018-04-10T02:38:07.065Z,5.57
2018-04-10T02:40:34.533Z,6.70
2018-04-10T02:43:02.239Z,4.47
2018-04-10T02:45:29.709Z,6.23
2018-04-10T02:47:57.194Z,5.07
2018-04-10T02:50:24.672Z,6.17
2018-04-10T02:52:52.136Z,4.67
2018-04-10T02:55:20.383Z,5.63
2018-04-10T02:57:47.845Z,4.43
2018-04-10T03:00:15.313Z,4.60
2018-04-10T03:02:42.789Z,4.60
2018-04-10T03:05:11.056Z,5.73
2018-04-10T03:07:39.307Z,8.17
2018-04-10T03:10:06.804Z,4.10
2018-04-10T03:12:34.307Z,6.90
2018-04-10T03:15:01.777Z,5.73
2018-04-10T03:17:29.254Z,4.67
2018-04-10T03:19:56.728Z,5.57
2018-04-10T03:22:24.293Z,5.33
2018-04-10T03:24:51.785Z,5.47
2018-04-10T03:27:19.283Z,8.10
2018-04-10T03:29:46.765Z,4.13
2018-04-10T03:32:14.244Z,3.60
2018-04-10T03:34:41.725Z,4.93
2018-04-10T03:37:09.208Z,6.70
2018-04-10T03:39:36.667Z,4.53
2018-04-10T03:42:04.140Z,4.73
2018-04-10T03:44:31.609Z,3.77
2018-04-10T03:46:59.852Z,5.63
2018-04-10T03:49:27.367Z,6.50
2018-04-10T03:51:54.864Z,3.90
2018-04-10T03:54:22.384Z,4.60
2018-04-10T03:56:49.856Z,5.90
2018-04-10T03:59:17.325Z,6.30
2018-04-10T04:01:44.804Z,4.07
2018-04-10T04:04:12.313Z,10.50
2018-04-10T04:06:39.798Z,4.53
2018-04-10T04:09:07.296Z,7.40
2018-04-10T04:11:35.542Z,4.77
2018-04-10T04:14:03.036Z,5.97
2018-04-10T04:16:42.513Z,7.23
2018-04-10T04:19:22.042Z,4.13
2018-04-10T04:24:52.216Z,4.60
2018-04-10T04:27:19.757Z,6.07
2018-04-10T04:29:48.020Z,7.70
2018-04-10T04:32:16.304Z,6.33
2018-04-10T04:34:44.569Z,6.30
2018-04-10T04:37:12.855Z,6.73
2018-04-10T04:39:41.113Z,6.10
2018-04-10T04:42:09.400Z,5.03
2018-04-10T04:44:37.680Z,6.80
2018-04-10T04:47:05.975Z,8.40
2018-04-10T04:49:33.497Z,6.90
2018-04-10T04:52:01.829Z,7.47
2018-04-10T04:54:30.400Z,6.27
2018-04-10T04:56:57.913Z,9.47
2018-04-10T04:59:26.200Z,7.77
2018-04-10T05:01:54.480Z,6.30
2018-04-10T05:04:22.753Z,6.93
2018-04-10T05:06:51.064Z,8.60
2018-04-10T05:09:18.562Z,11.43
2018-04-10T05:11:46.078Z,6.10
2018-04-10T05:14:13.579Z,6.67
2018-04-10T05:16:41.089Z,8.73
2018-04-10T05:19:08.607Z,6.77
2018-04-10T05:21:36.918Z,6.00
2018-04-10T05:24:04.501Z,6.07
2018-04-10T05:26:31.993Z,6.77
2018-04-10T05:29:01.773Z,9.27
2018-04-10T05:31:30.179Z,7.90
2018-04-10T05:33:58.902Z,6.90
2018-04-10T05:36:26.417Z,6.90
2018-04-10T05:38:53.925Z,10.27
2018-04-10T05:41:21.436Z,8.43
2018-04-10T05:43:49.933Z,7.03
2018-04-10T05:46:17.462Z,10.03
2018-04-10T05:48:45.812Z,5.70
2018-04-10T05:51:13.382Z,8.40
2018-04-10T05:53:40.929Z,14.40
2018-04-10T05:56:08.492Z,9.00
2018-04-10T05:58:36.025Z,15.97
2018-04-10T06:01:03.609Z,11.00
2018-04-10T06:03:31.155Z,5.47
2018-04-10T06:06:00.207Z,8.27
2018-04-10T06:08:27.728Z,7.77
2018-04-10T06:10:55.295Z,7.70
2018-04-10T06:13:22.816Z,8.77
2018-04-10T06:15:50.409Z,10.53
2018-04-10T06:18:17.957Z,8.77
2018-04-10T06:20:45.485Z,9.30
2018-04-10T06:23:13.028Z,6.67
2018-04-10T06:25:40.537Z,7.87
2018-04-10T06:28:08.096Z,10.13
2018-04-10T06:30:35.675Z,11.67
2018-04-10T06:33:04.048Z,9.30
2018-04-10T06:35:32.365Z,12.13
2018-04-10T06:38:01.213Z,14.60
2018-04-10T06:40:29.480Z,17.80
2018-04-10T06:42:57.801Z,21.37
2018-04-10T06:45:25.292Z,17.17
2018-04-10T06:47:52.812Z,14.60
2018-04-10T06:50:20.336Z,18.07
2018-04-10T06:52:48.659Z,18.87
2018-04-10T06:55:16.169Z,18.30
2018-04-10T06:57:44.510Z,18.93
2018-04-10T07:00:12.037Z,18.33
2018-04-10T07:02:39.633Z,17.67
2018-04-10T07:05:07.184Z,19.07
2018-04-10T07:07:34.702Z,21.90
2018-04-10T07:10:02.226Z,18.07
2018-04-10T07:12:30.495Z,18.93
2018-04-10T07:14:58.038Z,22.87
2018-04-10T07:17:25.622Z,18.67
2018-04-10T07:19:53.914Z,18.90
2018-04-10T07:22:21.487Z,23.03
2018-04-10T07:24:49.023Z,17.33
2018-04-10T07:27:16.541Z,19.67
2018-04-10T07:29:44.059Z,21.97
2018-04-10T07:32:11.596Z,19.83
2018-04-10T07:34:39.168Z,23.57
2018-04-10T07:37:07.386Z,21.47
2018-04-10T07:39:34.907Z,23.53
2018-04-10T07:42:02.421Z,24.37
2018-04-10T07:44:30.692Z,63.07
2018-04-10T07:47:00.441Z,21.90
2018-04-10T07:49:27.960Z,23.20
2018-04-10T07:51:55.504Z,24.00
2018-04-10T07:54:23.798Z,22.73
2018-04-10T07:56:52.074Z,17.97
2018-04-10T07:59:20.356Z,21.33
2018-04-10T08:01:47.884Z,22.50
2018-04-10T08:04:15.409Z,25.27
2018-04-10T08:06:42.918Z,24.63
2018-04-10T08:09:11.244Z,23.90
2018-04-10T08:11:38.748Z,22.53
2018-04-10T08:14:07.031Z,28.43
2018-04-10T08:16:35.296Z,22.50
2018-04-10T08:19:03.570Z,21.23
2018-04-10T08:21:31.854Z,22.73
2018-04-10T08:24:01.493Z,21.83
2018-04-10T08:26:29.732Z,22.47
2018-04-10T08:28:58.015Z,24.10
2018-04-10T08:31:25.536Z,20.50
2018-04-10T08:33:53.061Z,23.43
2018-04-10T08:36:20.623Z,24.03
2018-04-10T08:38:48.132Z,24.10
2018-04-10T08:41:16.464Z,24.80
2018-04-10T08:43:43.986Z,23.23
2018-04-10T08:46:11.500Z,22.43
2018-04-10T08:48:39.006Z,20.90
2018-04-10T08:51:06.519Z,21.90
2018-04-10T08:53:34.805Z,24.83
2018-04-10T08:56:03.082Z,22.90
2018-04-10T08:58:31.352Z,22.10
2018-04-10T09:01:00.575Z,19.77
2018-04-10T09:03:28.082Z,20.60
2018-04-10T09:05:55.641Z,19.40
2018-04-10T09:08:23.154Z,20.03
2018-04-10T09:10:50.669Z,18.93
2018-04-10T09:13:18.179Z,19.50
2018-04-10T09:15:45.696Z,18.47
2018-04-10T09:18:13.268Z,17.93
2018-04-10T09:20:40.787Z,14.83
2018-04-10T09:23:08.315Z,18.17
2018-04-10T09:25:35.928Z,17.63
2018-04-10T09:28:07.052Z,17.70
2018-04-10T09:30:34.706Z,20.70
2018-04-10T09:33:02.235Z,19.83
2018-04-10T09:35:30.948Z,18.10
2018-04-10T09:38:00.232Z,20.23
2018-04-10T09:40:27.738Z,17.93
2018-04-10T09:42:55.313Z,18.73
2018-04-10T09:45:22.823Z,20.77
2018-04-10T09:47:50.329Z,18.10
2018-04-10T09:50:17.827Z,19.63
2018-04-10T09:52:45.319Z,17.67
2018-04-10T09:55:12.847Z,20.03
2018-04-10T09:57:40.399Z,15.77
2018-04-10T10:00:07.954Z,14.83
2018-04-10T10:02:35.458Z,14.47
2018-04-10T10:05:02.984Z,15.37
2018-04-10T10:07:31.276Z,19.33
2018-04-10T10:09:59.549Z,16.87
2018-04-10T10:12:27.877Z,15.33
2018-04-10T10:14:55.427Z,16.80
2018-04-10T10:17:22.925Z,14.93
2018-04-10T10:19:51.254Z,17.87
2018-04-10T10:22:18.772Z,14.97
2018-04-10T10:24:47.059Z,15.87
2018-04-10T10:27:14.604Z,14.73
2018-04-10T10:29:42.885Z,12.90
2018-04-10T10:32:10.384Z,13.60
2018-04-10T10:34:37.920Z,13.87
2018-04-10T10:37:05.452Z,16.97
2018-04-10T10:39:32.967Z,16.77
2018-04-10T10:42:00.951Z,12.03
2018-04-10T10:44:30.773Z,17.07
2018-04-10T10:46:59.685Z,12.97
2018-04-10T10:49:27.215Z,12.37
2018-04-10T10:51:55.530Z,15.87
2018-04-10T10:54:23.091Z,16.37
2018-04-10T10:56:50.592Z,16.03
2018-04-10T10:59:18.122Z,17.00
2018-04-10T11:01:45.641Z,15.17
2018-04-10T11:04:13.156Z,15.20
2018-04-10T11:06:40.678Z,15.13
2018-04-10T11:09:08.959Z,11.10
2018-04-10T11:11:36.481Z,12.50
2018-04-10T11:14:04.761Z,13.77
2018-04-10T11:16:32.348Z,13.47
2018-04-10T11:19:00.737Z,12.43
2018-04-10T11:21:28.915Z,15.93
2018-04-10T11:23:56.438Z,21.50
2018-04-10T11:26:23.955Z,18.23
2018-04-10T11:28:51.492Z,20.90
2018-04-10T11:31:18.992Z,23.83
2018-04-10T11:33:47.269Z,22.30
2018-04-10T11:36:15.549Z,20.27
2018-04-10T11:38:43.110Z,19.30
2018-04-10T11:41:10.624Z,17.07
2018-04-10T11:43:38.161Z,18.60
2018-04-10T11:46:05.708Z,18.03
2018-04-10T11:48:33.630Z,17.87
2018-04-10T11:51:01.959Z,18.53
2018-04-10T11:53:29.839Z,16.83
2018-04-10T11:55:57.384Z,16.30
2018-04-10T11:58:24.909Z,17.47
2018-04-10T12:00:52.422Z,23.87
2018-04-10T12:03:19.931Z,20.53
2018-04-10T12:05:47.440Z,19.07
2018-04-10T12:08:15.740Z,19.63
2018-04-10T12:10:43.258Z,16.87
2018-04-10T12:13:10.770Z,20.70
2018-04-10T12:15:38.280Z,17.70
2018-04-10T12:18:05.839Z,18.57
2018-04-10T12:20:33.351Z,16.03
2018-04-10T12:23:00.885Z,19.73
2018-04-10T12:25:30.361Z,18.97
2018-04-10T12:27:58.998Z,16.93
2018-04-10T12:30:26.510Z,20.50
2018-04-10T12:32:54.051Z,19.30
2018-04-10T12:35:21.562Z,21.23
2018-04-10T12:37:49.084Z,23.30
2018-04-10T12:40:17.365Z,20.03
2018-04-10T12:42:45.657Z,17.40
2018-04-10T12:45:13.203Z,21.50
2018-04-10T12:47:41.480Z,23.23
2018-04-10T12:50:09.808Z,15.30
2018-04-10T12:52:37.341Z,16.83
2018-04-10T12:55:04.857Z,19.40
2018-04-10T12:57:33.140Z,15.60
2018-04-10T13:00:01.919Z,17.87
2018-04-10T13:02:30.917Z,15.20
2018-04-10T13:05:00.056Z,16.17
2018-04-10T13:07:27.556Z,15.63
2018-04-10T13:09:55.945Z,15.03
2018-04-10T13:12:24.233Z,14.90
2018-04-10T13:14:51.739Z,10.83
2018-04-10T13:17:19.248Z,11.90
2018-04-10T13:19:46.755Z,11.50
2018-04-10T13:22:14.267Z,11.50
2018-04-10T13:24:41.765Z,15.00
2018-04-10T13:27:09.297Z,13.03
2018-04-10T13:29:36.813Z,10.37
2018-04-10T13:32:05.081Z,10.90
2018-04-10T13:34:33.357Z,9.70
2018-04-10T13:37:01.620Z,9.00
2018-04-10T13:39:30.762Z,6.13
2018-04-10T13:41:59.041Z,8.87
2018-04-10T13:44:26.566Z,8.07
2018-04-10T13:46:54.880Z,8.60
2018-04-10T13:49:22.431Z,8.17
2018-04-10T13:51:49.934Z,5.80
2018-04-10T13:54:18.228Z,8.10
2018-04-10T13:56:46.501Z,5.50
2018-04-10T13:59:14.774Z,6.73
2018-04-10T14:01:43.100Z,8.20
2018-04-10T14:04:10.601Z,6.23
2018-04-10T14:06:38.924Z,6.90
2018-04-10T14:09:06.418Z,4.20
2018-04-10T14:11:33.933Z,7.80
2018-04-10T14:14:01.434Z,6.90
2018-04-10T14:16:30.321Z,3.50
2018-04-10T14:18:57.827Z,5.07
2018-04-10T14:21:25.319Z,4.70
2018-04-10T14:23:52.817Z,4.00
2018-04-10T14:26:20.342Z,4.13
2018-04-10T14:28:47.836Z,3.70
2018-04-10T14:31:15.340Z,2.90
2018-04-10T14:33:42.842Z,6.10
2018-04-10T14:36:10.363Z,3.20
2018-04-10T14:38:37.896Z,3.97
2018-04-10T14:41:05.444Z,5.13
2018-04-10T14:43:33.284Z,3.27
2018-04-10T14:46:00.845Z,3.93
2018-04-10T14:48:28.937Z,2.83
2018-04-10T14:50:56.445Z,3.37
2018-04-10T14:53:23.994Z,3.17
2018-04-10T14:55:51.500Z,4.63
2018-04-10T14:58:19.061Z,2.60
2018-04-10T15:00:46.577Z,3.67
2018-04-10T15:03:14.857Z,3.67
2018-04-10T15:05:43.120Z,3.73
2018-04-10T15:08:10.623Z,2.13
2018-04-10T15:10:38.144Z,2.37
2018-04-10T15:13:05.666Z,2.27
2018-04-10T15:15:33.173Z,3.80
2018-04-10T15:18:00.681Z,2.90
2018-04-10T15:20:28.928Z,3.60
2018-04-10T15:22:56.429Z,4.00
2018-04-10T15:25:23.988Z,2.87
2018-04-10T15:27:51.492Z,4.73
2018-04-10T15:30:19.026Z,3.37
2018-04-10T15:32:47.307Z,4.07
2018-04-10T15:35:14.880Z,2.73
2018-04-10T15:37:42.384Z,2.97
2018-04-10T15:40:09.894Z,3.93
2018-04-10T15:42:37.421Z,4.80
2018-04-10T15:45:05.689Z,5.30
2018-04-10T15:47:33.969Z,2.70
2018-04-10T15:50:02.242Z,3.20
2018-04-10T15:52:30.987Z,6.33
2018-04-10T15:54:59.035Z,3.73
2018-04-10T15:57:26.537Z,5.33
2018-04-10T15:59:54.817Z,4.43
2018-04-10T16:02:23.101Z,7.10
2018-04-10T16:04:51.367Z,3.47
2018-04-10T16:07:19.655Z,4.03
2018-04-10T16:09:48.002Z,3.33
2018-04-10T16:12:15.516Z,5.70
2018-04-10T16:14:43.100Z,6.30
2018-04-10T16:17:10.634Z,7.00
2018-04-10T16:19:38.173Z,6.50
2018-04-10T16:22:05.735Z,3.40
2018-04-10T16:24:33.253Z,8.83
2018-04-10T16:27:00.750Z,4.13
2018-04-10T16:29:28.971Z,3.33
2018-04-10T16:31:56.472Z,3.63
2018-04-10T16:34:23.980Z,3.03
2018-04-10T16:36:51.476Z,3.90
2018-04-10T16:39:19.752Z,4.50
2018-04-10T16:41:47.280Z,4.87
2018-04-10T16:44:15.568Z,4.63
2018-04-10T16:46:43.121Z,5.00
2018-04-10T16:49:10.623Z,4.47
2018-04-10T16:51:38.131Z,3.20
2018-04-10T16:54:05.624Z,4.43
2018-04-10T16:56:33.614Z,3.83
2018-04-10T16:59:01.103Z,4.17
2018-04-10T17:01:29.047Z,5.07
2018-04-10T17:03:56.547Z,5.17
2018-04-10T17:06:24.824Z,4.20
2018-04-10T17:08:53.104Z,5.90
2018-04-10T17:11:21.372Z,5.47
2018-04-10T17:13:49.649Z,3.53
2018-04-10T17:16:17.924Z,6.40
2018-04-10T17:18:45.454Z,4.03
2018-04-10T17:21:13.021Z,3.77
2018-04-10T17:23:40.525Z,4.57
2018-04-10T17:26:08.044Z,4.43
2018-04-10T17:28:36.320Z,4.20
2018-04-10T17:31:04.584Z,4.87
2018-04-10T17:33:32.132Z,3.93
2018-04-10T17:36:00.931Z,4.23
2018-04-10T17:38:28.935Z,5.03
2018-04-10T17:40:56.441Z,5.90
2018-04-10T17:43:23.943Z,4.30
2018-04-10T17:45:51.487Z,4.27
2018-04-10T17:48:19.812Z,4.90
2018-04-10T17:50:47.320Z,5.13
2018-04-10T17:53:15.660Z,3.57
2018-04-10T17:55:43.218Z,5.23
2018-04-10T17:58:10.736Z,4.33
2018-04-10T18:00:38.240Z,8.70
2018-04-10T18:03:06.526Z,3.13
2018-04-10T18:05:34.908Z,6.60
2018-04-10T18:08:03.271Z,3.10
2018-04-10T18:10:30.760Z,4.93
2018-04-10T18:12:58.956Z,3.80
2018-04-10T18:15:26.446Z,5.90
2018-04-10T18:17:53.943Z,4.93
2018-04-10T18:20:21.445Z,5.47
2018-04-10T18:22:48.948Z,5.27
2018-04-10T18:25:17.204Z,6.27
2018-04-10T18:27:45.506Z,6.17
2018-04-10T18:30:13.810Z,4.17
2018-04-10T18:32:42.054Z,5.37
2018-04-10T18:35:09.563Z,5.87
2018-04-10T18:37:37.086Z,5.90
2018-04-10T18:40:04.596Z,4.97
2018-04-10T18:42:32.107Z,5.87
2018-04-10T18:45:00.655Z,6.60
2018-04-10T18:47:28.172Z,6.23
2018-04-10T18:49:57.295Z,8.50
2018-04-10T18:52:25.582Z,5.13
2018-04-10T18:54:53.867Z,5.93
2018-04-10T18:57:21.399Z,4.13
2018-04-10T18:59:48.951Z,6.03
2018-04-10T19:02:17.238Z,5.60
2018-04-10T19:04:44.772Z,5.87
2018-04-10T19:07:12.291Z,6.07
2018-04-10T19:09:39.805Z,6.77
2018-04-10T19:12:08.083Z,6.87
2018-04-10T19:14:36.404Z,5.90
2018-04-10T19:17:03.911Z,5.93
2018-04-10T19:19:32.179Z,5.27
2018-04-10T19:22:00.744Z,8.27
2018-04-10T19:24:28.914Z,6.63
2018-04-10T19:26:56.472Z,15.93
2018-04-10T19:29:24.045Z,12.97
2018-04-10T19:31:51.556Z,7.47
2018-04-10T19:34:19.117Z,7.00
2018-04-10T19:36:46.629Z,12.53
2018-04-10T19:39:14.163Z,8.47
2018-04-10T19:41:41.672Z,6.20
2018-04-10T19:44:09.180Z,7.37
2018-04-10T19:46:36.740Z,6.10
2018-04-10T19:49:05.038Z,7.77
2018-04-10T19:51:33.309Z,6.53
2018-04-10T19:54:01.582Z,6.03
2018-04-10T19:56:30.817Z,4.83
2018-04-10T19:58:59.095Z,4.23
2018-04-10T20:01:26.607Z,5.67
2018-04-10T20:03:54.892Z,4.47
2018-04-10T20:06:23.160Z,5.83
2018-04-10T20:08:50.684Z,5.07
2018-04-10T20:11:18.190Z,4.20
2018-04-10T20:13:45.684Z,3.63
2018-04-10T20:16:13.200Z,3.10
2018-04-10T20:18:41.538Z,3.50
2018-04-10T20:21:09.054Z,3.43
2018-04-10T20:23:36.580Z,4.87
2018-04-10T20:26:04.880Z,3.57
2018-04-10T20:28:32.801Z,3.17
2018-04-10T20:31:01.082Z,4.00
2018-04-10T20:33:29.869Z,5.87
2018-04-10T20:35:58.140Z,5.27
2018-04-10T20:38:25.695Z,6.23
2018-04-10T20:40:53.996Z,6.93
2018-04-10T20:43:22.276Z,6.37
2018-04-10T20:45:50.619Z,4.97
2018-04-10T20:48:18.133Z,4.37
2018-04-10T20:50:45.683Z,8.47
2018-04-10T20:53:13.232Z,8.37
2018-04-10T20:55:40.744Z,7.37
2018-04-10T20:58:08.259Z,7.40
2018-04-10T21:00:35.780Z,7.23
2018-04-10T21:03:04.140Z,6.27
2018-04-10T21:05:31.700Z,6.77
2018-04-10T21:08:00.688Z,6.70
2018-04-10T21:10:29.432Z,7.10
2018-04-10T21:12:56.962Z,9.37
2018-04-10T21:15:25.300Z,7.93
2018-04-10T21:17:52.810Z,9.27
2018-04-10T21:20:20.328Z,11.03
2018-04-10T21:22:47.838Z,8.30
2018-04-10T21:25:15.381Z,10.87
2018-04-10T21:27:42.892Z,8.87
2018-04-10T21:30:10.399Z,9.20
2018-04-10T21:32:38.001Z,9.77
2018-04-10T21:35:05.552Z,9.13
2018-04-10T21:37:33.878Z,9.83
2018-04-10T21:40:01.403Z,13.50
2018-04-10T21:45:30.984Z,9.23
2018-04-10T21:47:58.955Z,11.17
2018-04-10T21:50:26.455Z,11.73
2018-04-10T21:52:54.816Z,11.37
2018-04-10T21:55:23.199Z,10.43
2018-04-10T21:57:50.724Z,9.67
2018-04-10T22:00:18.326Z,9.90
2018-04-10T22:02:45.876Z,10.97
2018-04-10T22:05:14.165Z,9.93
2018-04-10T22:07:42.448Z,10.10
2018-04-10T22:10:10.747Z,9.97
2018-04-10T22:12:38.255Z,9.43
2018-04-10T22:15:05.813Z,9.97
2018-04-10T22:17:33.319Z,8.60
2018-04-10T22:20:00.900Z,9.80
2018-04-10T22:22:29.162Z,10.43
2018-04-10T22:24:58.731Z,10.73
2018-04-10T22:27:24.280Z,8.57
2018-04-10T22:29:51.781Z,9.93
2018-04-10T22:32:20.060Z,8.63
2018-04-10T22:34:48.359Z,8.73
2018-04-10T22:37:15.841Z,12.20
2018-04-10T22:39:44.250Z,9.27
2018-04-10T22:42:11.808Z,11.80
2018-04-10T22:44:40.089Z,8.43
2018-04-10T22:47:07.636Z,10.43
2018-04-10T22:49:35.924Z,9.33
2018-04-10T22:52:03.503Z,11.93
2018-04-10T22:54:31.032Z,10.13
2018-04-10T22:56:58.858Z,10.10
2018-04-10T22:59:27.166Z,10.40
2018-04-10T23:01:55.457Z,10.77
2018-04-10T23:04:23.036Z,12.10
2018-04-10T23:06:50.558Z,10.40
2018-04-10T23:09:18.861Z,10.83
2018-04-10T23:11:46.417Z,11.37
2018-04-10T23:14:14.000Z,12.03
2018-04-10T23:16:41.566Z,11.27
2018-04-10T23:19:09.095Z,11.80
2018-04-10T23:21:36.727Z,11.93
2018-04-10T23:24:04.245Z,12.27
2018-04-10T23:26:32.178Z,12.07
2018-04-10T23:29:01.265Z,12.60
2018-04-10T23:31:29.859Z,12.20
2018-04-10T23:33:59.400Z,12.87
2018-04-10T23:36:26.942Z,14.40
2018-04-10T23:38:54.482Z,13.70
2018-04-10T23:41:22.761Z,14.43
2018-04-10T23:43:51.067Z,14.70
2018-04-10T23:46:18.592Z,15.63
2018-04-10T23:48:46.911Z,15.50
2018-04-10T23:51:14.446Z,15.80
2018-04-10T23:53:41.957Z,15.87
2018-04-10T23:56:09.472Z,15.57
2018-04-10T23:58:36.985Z,14.43
